sensor_id;sensor_type;location;lat;lon;timestamp;P1;durP1;ratioP1;P2;durP2;ratioP2
31990;SDS011;18508;49.386;8.370;2023-07-29T00:00:21;7.88;;;4.65;;
31990;SDS011;18508;49.386;8.370;2023-07-29T00:03:04;6.45;;;4.57;;
31990;SDS011;18508;49.386;8.370;2023-07-29T00:05:33;7.65;;;4.35;;
31990;SDS011;18508;49.386;8.370;2023-07-29T00:08:06;6.63;;;4.72;;
31990;SDS011;18508;49.386;8.370;2023-07-29T00:10:35;6.07;;;3.97;;
31990;SDS011;18508;49.386;8.370;2023-07-29T00:13:14;8.88;;;4.35;;
31990;SDS011;18508;49.386;8.370;2023-07-29T00:15:47;8.52;;;4.15;;
31990;SDS011;18508;49.386;8.370;2023-07-29T00:18:16;6.45;;;4.38;;
31990;SDS011;18508;49.386;8.370;2023-07-29T00:20:46;5.18;;;3.95;;
31990;SDS011;18508;49.386;8.370;2023-07-29T00:23:16;6.35;;;3.78;;
31990;SDS011;18508;49.386;8.370;2023-07-29T00:25:48;6.70;;;3.63;;
31990;SDS011;18508;49.386;8.370;2023-07-29T00:28:19;5.43;;;3.83;;
31990;SDS011;18508;49.386;8.370;2023-07-29T00:30:49;5.28;;;3.70;;
31990;SDS011;18508;49.386;8.370;2023-07-29T00:33:18;5.38;;;3.65;;
31990;SDS011;18508;49.386;8.370;2023-07-29T00:35:48;6.82;;;3.92;;
31990;SDS011;18508;49.386;8.370;2023-07-29T00:38:17;6.82;;;3.70;;
31990;SDS011;18508;49.386;8.370;2023-07-29T00:40:45;7.38;;;3.33;;
31990;SDS011;18508;49.386;8.370;2023-07-29T00:43:15;3.90;;;2.92;;
31990;SDS011;18508;49.386;8.370;2023-07-29T00:45:49;5.57;;;3.92;;
31990;SDS011;18508;49.386;8.370;2023-07-29T00:48:19;8.20;;;3.47;;
31990;SDS011;18508;49.386;8.370;2023-07-29T00:50:48;7.80;;;3.60;;
31990;SDS011;18508;49.386;8.370;2023-07-29T00:53:16;7.57;;;3.55;;
31990;SDS011;18508;49.386;8.370;2023-07-29T00:55:45;10.57;;;4.50;;
31990;SDS011;18508;49.386;8.370;2023-07-29T00:58:13;4.47;;;2.97;;
31990;SDS011;18508;49.386;8.370;2023-07-29T01:00:42;4.93;;;3.08;;
31990;SDS011;18508;49.386;8.370;2023-07-29T01:03:12;6.13;;;3.30;;
31990;SDS011;18508;49.386;8.370;2023-07-29T01:05:43;6.30;;;3.05;;
31990;SDS011;18508;49.386;8.370;2023-07-29T01:08:20;5.18;;;3.17;;
31990;SDS011;18508;49.386;8.370;2023-07-29T01:11:22;4.43;;;3.10;;
31990;SDS011;18508;49.386;8.370;2023-07-29T01:14:04;8.25;;;3.05;;
31990;SDS011;18508;49.386;8.370;2023-07-29T01:16:39;4.50;;;2.85;;
31990;SDS011;18508;49.386;8.370;2023-07-29T01:19:15;5.18;;;3.17;;
31990;SDS011;18508;49.386;8.370;2023-07-29T01:21:55;3.90;;;2.90;;
31990;SDS011;18508;49.386;8.370;2023-07-29T01:24:26;5.28;;;2.72;;
31990;SDS011;18508;49.386;8.370;2023-07-29T01:26:57;3.83;;;2.97;;
31990;SDS011;18508;49.386;8.370;2023-07-29T01:29:28;5.43;;;3.00;;
31990;SDS011;18508;49.386;8.370;2023-07-29T01:31:56;4.38;;;2.92;;
31990;SDS011;18508;49.386;8.370;2023-07-29T01:37:03;5.88;;;2.53;;
31990;SDS011;18508;49.386;8.370;2023-07-29T01:39:36;5.50;;;3.28;;
31990;SDS011;18508;49.386;8.370;2023-07-29T01:42:06;4.07;;;2.90;;
31990;SDS011;18508;49.386;8.370;2023-07-29T01:44:37;5.72;;;2.70;;
31990;SDS011;18508;49.386;8.370;2023-07-29T01:47:06;5.07;;;3.20;;
31990;SDS011;18508;49.386;8.370;2023-07-29T01:49:35;6.45;;;2.50;;
31990;SDS011;18508;49.386;8.370;2023-07-29T01:52:06;4.65;;;2.95;;
31990;SDS011;18508;49.386;8.370;2023-07-29T01:54:36;5.25;;;2.92;;
31990;SDS011;18508;49.386;8.370;2023-07-29T01:57:12;8.20;;;3.10;;
31990;SDS011;18508;49.386;8.370;2023-07-29T01:59:41;4.60;;;2.90;;
31990;SDS011;18508;49.386;8.370;2023-07-29T02:02:10;5.40;;;2.95;;
31990;SDS011;18508;49.386;8.370;2023-07-29T02:04:39;7.28;;;2.83;;
31990;SDS011;18508;49.386;8.370;2023-07-29T02:07:08;5.38;;;3.00;;
31990;SDS011;18508;49.386;8.370;2023-07-29T02:09:39;5.47;;;3.00;;
31990;SDS011;18508;49.386;8.370;2023-07-29T02:12:09;5.13;;;3.55;;
31990;SDS011;18508;49.386;8.370;2023-07-29T02:14:37;5.22;;;3.38;;
31990;SDS011;18508;49.386;8.370;2023-07-29T02:17:06;5.97;;;3.60;;
31990;SDS011;18508;49.386;8.370;2023-07-29T02:19:35;6.70;;;3.40;;
31990;SDS011;18508;49.386;8.370;2023-07-29T02:22:04;6.57;;;3.50;;
31990;SDS011;18508;49.386;8.370;2023-07-29T02:24:32;6.32;;;3.60;;
31990;SDS011;18508;49.386;8.370;2023-07-29T02:27:03;7.95;;;3.65;;
31990;SDS011;18508;49.386;8.370;2023-07-29T02:29:31;6.68;;;3.50;;
31990;SDS011;18508;49.386;8.370;2023-07-29T02:32:00;5.63;;;3.28;;
31990;SDS011;18508;49.386;8.370;2023-07-29T02:34:28;5.63;;;3.72;;
31990;SDS011;18508;49.386;8.370;2023-07-29T02:36:57;6.38;;;3.67;;
31990;SDS011;18508;49.386;8.370;2023-07-29T02:39:26;7.28;;;3.95;;
31990;SDS011;18508;49.386;8.370;2023-07-29T02:41:55;7.70;;;3.85;;
31990;SDS011;18508;49.386;8.370;2023-07-29T02:44:26;7.30;;;3.55;;
31990;SDS011;18508;49.386;8.370;2023-07-29T02:46:54;7.63;;;3.80;;
31990;SDS011;18508;49.386;8.370;2023-07-29T02:49:23;9.95;;;3.80;;
31990;SDS011;18508;49.386;8.370;2023-07-29T02:51:51;6.25;;;3.58;;
31990;SDS011;18508;49.386;8.370;2023-07-29T02:54:19;5.63;;;3.70;;
31990;SDS011;18508;49.386;8.370;2023-07-29T02:56:49;8.48;;;3.40;;
31990;SDS011;18508;49.386;8.370;2023-07-29T02:59:19;5.22;;;3.75;;
31990;SDS011;18508;49.386;8.370;2023-07-29T03:01:49;8.60;;;3.60;;
31990;SDS011;18508;49.386;8.370;2023-07-29T03:04:17;6.97;;;3.72;;
31990;SDS011;18508;49.386;8.370;2023-07-29T03:06:45;7.07;;;3.70;;
31990;SDS011;18508;49.386;8.370;2023-07-29T03:09:14;6.20;;;4.10;;
31990;SDS011;18508;49.386;8.370;2023-07-29T03:11:43;6.50;;;3.70;;
31990;SDS011;18508;49.386;8.370;2023-07-29T03:14:12;8.48;;;3.88;;
31990;SDS011;18508;49.386;8.370;2023-07-29T03:16:40;7.45;;;3.92;;
31990;SDS011;18508;49.386;8.370;2023-07-29T03:19:15;6.53;;;4.10;;
31990;SDS011;18508;49.386;8.370;2023-07-29T03:21:44;7.97;;;4.53;;
31990;SDS011;18508;49.386;8.370;2023-07-29T03:24:13;7.57;;;4.40;;
31990;SDS011;18508;49.386;8.370;2023-07-29T03:26:42;9.02;;;4.22;;
31990;SDS011;18508;49.386;8.370;2023-07-29T03:29:12;5.50;;;4.20;;
31990;SDS011;18508;49.386;8.370;2023-07-29T03:31:40;6.95;;;4.30;;
31990;SDS011;18508;49.386;8.370;2023-07-29T03:34:08;11.02;;;5.35;;
31990;SDS011;18508;49.386;8.370;2023-07-29T03:36:40;7.45;;;4.60;;
31990;SDS011;18508;49.386;8.370;2023-07-29T03:39:08;10.20;;;4.35;;
31990;SDS011;18508;49.386;8.370;2023-07-29T03:41:37;8.00;;;4.22;;
31990;SDS011;18508;49.386;8.370;2023-07-29T03:44:05;8.55;;;4.50;;
31990;SDS011;18508;49.386;8.370;2023-07-29T03:46:34;6.55;;;4.70;;
31990;SDS011;18508;49.386;8.370;2023-07-29T03:49:03;8.73;;;5.00;;
31990;SDS011;18508;49.386;8.370;2023-07-29T03:51:32;7.50;;;4.45;;
31990;SDS011;18508;49.386;8.370;2023-07-29T03:54:04;8.52;;;5.70;;
31990;SDS011;18508;49.386;8.370;2023-07-29T03:56:33;8.95;;;5.13;;
31990;SDS011;18508;49.386;8.370;2023-07-29T03:59:03;7.75;;;4.97;;
31990;SDS011;18508;49.386;8.370;2023-07-29T04:01:32;6.22;;;4.50;;
31990;SDS011;18508;49.386;8.370;2023-07-29T04:04:00;8.35;;;5.25;;
31990;SDS011;18508;49.386;8.370;2023-07-29T04:06:29;7.82;;;5.30;;
31990;SDS011;18508;49.386;8.370;2023-07-29T04:08:58;11.43;;;5.55;;
31990;SDS011;18508;49.386;8.370;2023-07-29T04:11:28;8.15;;;5.28;;
31990;SDS011;18508;49.386;8.370;2023-07-29T04:13:57;10.32;;;5.85;;
31990;SDS011;18508;49.386;8.370;2023-07-29T04:16:26;7.47;;;5.35;;
31990;SDS011;18508;49.386;8.370;2023-07-29T04:18:55;10.60;;;5.75;;
31990;SDS011;18508;49.386;8.370;2023-07-29T04:21:24;12.77;;;5.53;;
31990;SDS011;18508;49.386;8.370;2023-07-29T04:23:53;8.60;;;5.18;;
31990;SDS011;18508;49.386;8.370;2023-07-29T04:26:21;8.20;;;5.28;;
31990;SDS011;18508;49.386;8.370;2023-07-29T04:28:51;11.32;;;5.85;;
31990;SDS011;18508;49.386;8.370;2023-07-29T04:31:19;8.10;;;5.68;;
31990;SDS011;18508;49.386;8.370;2023-07-29T04:33:48;9.35;;;6.15;;
31990;SDS011;18508;49.386;8.370;2023-07-29T04:36:17;9.13;;;5.82;;
31990;SDS011;18508;49.386;8.370;2023-07-29T04:38:45;10.80;;;5.45;;
31990;SDS011;18508;49.386;8.370;2023-07-29T04:41:13;12.18;;;6.05;;
31990;SDS011;18508;49.386;8.370;2023-07-29T04:43:41;9.70;;;5.30;;
31990;SDS011;18508;49.386;8.370;2023-07-29T04:46:11;10.90;;;5.93;;
31990;SDS011;18508;49.386;8.370;2023-07-29T04:48:42;12.68;;;6.68;;
31990;SDS011;18508;49.386;8.370;2023-07-29T04:51:10;8.82;;;5.95;;
31990;SDS011;18508;49.386;8.370;2023-07-29T04:53:40;9.98;;;6.07;;
31990;SDS011;18508;49.386;8.370;2023-07-29T04:56:08;9.38;;;6.03;;
31990;SDS011;18508;49.386;8.370;2023-07-29T04:58:44;10.80;;;6.05;;
31990;SDS011;18508;49.386;8.370;2023-07-29T05:01:19;9.77;;;5.60;;
31990;SDS011;18508;49.386;8.370;2023-07-29T05:03:48;8.40;;;4.63;;
31990;SDS011;18508;49.386;8.370;2023-07-29T05:06:18;11.73;;;4.50;;
31990;SDS011;18508;49.386;8.370;2023-07-29T05:08:48;9.23;;;3.83;;
31990;SDS011;18508;49.386;8.370;2023-07-29T05:11:18;5.47;;;3.53;;
31990;SDS011;18508;49.386;8.370;2023-07-29T05:13:48;5.20;;;3.10;;
31990;SDS011;18508;49.386;8.370;2023-07-29T05:19:20;4.70;;;2.72;;
31990;SDS011;18508;49.386;8.370;2023-07-29T05:21:51;4.45;;;2.30;;
31990;SDS011;18508;49.386;8.370;2023-07-29T05:24:20;5.93;;;2.95;;
31990;SDS011;18508;49.386;8.370;2023-07-29T05:26:51;6.78;;;3.70;;
31990;SDS011;18508;49.386;8.370;2023-07-29T05:29:20;4.20;;;2.63;;
31990;SDS011;18508;49.386;8.370;2023-07-29T05:31:52;5.78;;;3.28;;
31990;SDS011;18508;49.386;8.370;2023-07-29T05:34:29;7.20;;;3.50;;
31990;SDS011;18508;49.386;8.370;2023-07-29T05:36:58;7.20;;;3.30;;
31990;SDS011;18508;49.386;8.370;2023-07-29T05:39:26;5.20;;;3.33;;
31990;SDS011;18508;49.386;8.370;2023-07-29T05:41:55;6.90;;;3.97;;
31990;SDS011;18508;49.386;8.370;2023-07-29T05:44:42;6.07;;;4.15;;
31990;SDS011;18508;49.386;8.370;2023-07-29T05:47:42;6.22;;;4.22;;
31990;SDS011;18508;49.386;8.370;2023-07-29T05:50:15;6.65;;;3.97;;
31990;SDS011;18508;49.386;8.370;2023-07-29T05:52:44;6.32;;;3.80;;
31990;SDS011;18508;49.386;8.370;2023-07-29T05:55:15;5.97;;;3.55;;
31990;SDS011;18508;49.386;8.370;2023-07-29T05:57:46;6.30;;;3.50;;
31990;SDS011;18508;49.386;8.370;2023-07-29T06:00:15;4.38;;;3.10;;
31990;SDS011;18508;49.386;8.370;2023-07-29T06:02:46;6.47;;;3.28;;
31990;SDS011;18508;49.386;8.370;2023-07-29T06:05:15;5.88;;;3.30;;
31990;SDS011;18508;49.386;8.370;2023-07-29T06:07:45;6.45;;;3.85;;
31990;SDS011;18508;49.386;8.370;2023-07-29T06:10:14;5.75;;;4.10;;
31990;SDS011;18508;49.386;8.370;2023-07-29T06:12:45;5.63;;;3.97;;
31990;SDS011;18508;49.386;8.370;2023-07-29T06:15:14;6.93;;;4.18;;
31990;SDS011;18508;49.386;8.370;2023-07-29T06:17:42;5.38;;;4.07;;
31990;SDS011;18508;49.386;8.370;2023-07-29T06:20:14;8.18;;;4.32;;
31990;SDS011;18508;49.386;8.370;2023-07-29T06:22:50;5.18;;;3.97;;
31990;SDS011;18508;49.386;8.370;2023-07-29T06:25:20;6.88;;;4.15;;
31990;SDS011;18508;49.386;8.370;2023-07-29T06:27:49;7.97;;;3.90;;
31990;SDS011;18508;49.386;8.370;2023-07-29T06:30:18;7.20;;;3.95;;
31990;SDS011;18508;49.386;8.370;2023-07-29T06:32:48;5.70;;;3.90;;
31990;SDS011;18508;49.386;8.370;2023-07-29T06:35:20;7.90;;;4.18;;
31990;SDS011;18508;49.386;8.370;2023-07-29T06:37:49;5.90;;;3.60;;
31990;SDS011;18508;49.386;8.370;2023-07-29T06:40:18;5.00;;;3.80;;
31990;SDS011;18508;49.386;8.370;2023-07-29T06:42:48;5.72;;;3.55;;
31990;SDS011;18508;49.386;8.370;2023-07-29T06:45:17;5.35;;;3.63;;
31990;SDS011;18508;49.386;8.370;2023-07-29T06:47:46;7.35;;;3.63;;
31990;SDS011;18508;49.386;8.370;2023-07-29T06:50:14;8.15;;;3.83;;
31990;SDS011;18508;49.386;8.370;2023-07-29T06:52:45;5.00;;;3.50;;
31990;SDS011;18508;49.386;8.370;2023-07-29T06:55:14;5.50;;;3.50;;
31990;SDS011;18508;49.386;8.370;2023-07-29T06:57:42;5.55;;;2.97;;
31990;SDS011;18508;49.386;8.370;2023-07-29T07:00:11;7.57;;;3.00;;
31990;SDS011;18508;49.386;8.370;2023-07-29T07:02:41;3.75;;;2.78;;
31990;SDS011;18508;49.386;8.370;2023-07-29T07:05:10;4.53;;;3.30;;
31990;SDS011;18508;49.386;8.370;2023-07-29T07:07:39;4.82;;;2.90;;
31990;SDS011;18508;49.386;8.370;2023-07-29T07:10:13;6.13;;;3.15;;
31990;SDS011;18508;49.386;8.370;2023-07-29T07:12:42;5.05;;;2.75;;
31990;SDS011;18508;49.386;8.370;2023-07-29T07:15:18;5.20;;;2.85;;
31990;SDS011;18508;49.386;8.370;2023-07-29T07:17:46;6.25;;;2.35;;
31990;SDS011;18508;49.386;8.370;2023-07-29T07:20:17;3.85;;;2.55;;
31990;SDS011;18508;49.386;8.370;2023-07-29T07:22:47;3.78;;;2.20;;
31990;SDS011;18508;49.386;8.370;2023-07-29T07:25:18;5.10;;;2.55;;
31990;SDS011;18508;49.386;8.370;2023-07-29T07:27:53;3.58;;;1.90;;
31990;SDS011;18508;49.386;8.370;2023-07-29T07:30:22;3.75;;;2.20;;
31990;SDS011;18508;49.386;8.370;2023-07-29T07:32:50;5.25;;;2.05;;
31990;SDS011;18508;49.386;8.370;2023-07-29T07:35:24;3.60;;;1.75;;
31990;SDS011;18508;49.386;8.370;2023-07-29T07:37:52;4.53;;;1.73;;
31990;SDS011;18508;49.386;8.370;2023-07-29T07:40:22;4.25;;;1.92;;
31990;SDS011;18508;49.386;8.370;2023-07-29T07:42:53;2.55;;;1.92;;
31990;SDS011;18508;49.386;8.370;2023-07-29T07:45:21;3.13;;;1.80;;
31990;SDS011;18508;49.386;8.370;2023-07-29T07:47:51;6.05;;;1.85;;
31990;SDS011;18508;49.386;8.370;2023-07-29T07:50:20;3.63;;;1.98;;
31990;SDS011;18508;49.386;8.370;2023-07-29T07:52:51;4.97;;;2.17;;
31990;SDS011;18508;49.386;8.370;2023-07-29T07:55:19;3.88;;;2.17;;
31990;SDS011;18508;49.386;8.370;2023-07-29T07:57:49;4.97;;;2.30;;
31990;SDS011;18508;49.386;8.370;2023-07-29T08:00:18;4.53;;;2.03;;
31990;SDS011;18508;49.386;8.370;2023-07-29T08:02:48;3.72;;;2.33;;
31990;SDS011;18508;49.386;8.370;2023-07-29T08:05:16;3.35;;;1.90;;
31990;SDS011;18508;49.386;8.370;2023-07-29T08:07:45;4.32;;;1.80;;
31990;SDS011;18508;49.386;8.370;2023-07-29T08:10:14;4.85;;;2.10;;
31990;SDS011;18508;49.386;8.370;2023-07-29T08:12:43;4.18;;;2.10;;
31990;SDS011;18508;49.386;8.370;2023-07-29T08:15:13;3.88;;;1.98;;
31990;SDS011;18508;49.386;8.370;2023-07-29T08:17:41;3.60;;;1.80;;
31990;SDS011;18508;49.386;8.370;2023-07-29T08:20:09;5.63;;;2.20;;
31990;SDS011;18508;49.386;8.370;2023-07-29T08:22:38;2.80;;;1.98;;
31990;SDS011;18508;49.386;8.370;2023-07-29T08:25:08;4.47;;;2.42;;
31990;SDS011;18508;49.386;8.370;2023-07-29T08:27:37;3.80;;;2.50;;
31990;SDS011;18508;49.386;8.370;2023-07-29T08:30:07;3.40;;;2.47;;
31990;SDS011;18508;49.386;8.370;2023-07-29T08:32:37;6.15;;;2.47;;
31990;SDS011;18508;49.386;8.370;2023-07-29T08:35:07;6.30;;;2.55;;
31990;SDS011;18508;49.386;8.370;2023-07-29T08:37:36;5.63;;;2.55;;
31990;SDS011;18508;49.386;8.370;2023-07-29T08:40:05;8.80;;;2.53;;
31990;SDS011;18508;49.386;8.370;2023-07-29T08:42:37;3.90;;;2.10;;
31990;SDS011;18508;49.386;8.370;2023-07-29T08:45:08;3.38;;;2.15;;
31990;SDS011;18508;49.386;8.370;2023-07-29T08:47:41;3.90;;;2.30;;
31990;SDS011;18508;49.386;8.370;2023-07-29T08:50:10;4.53;;;2.27;;
31990;SDS011;18508;49.386;8.370;2023-07-29T08:52:54;4.13;;;2.08;;
31990;SDS011;18508;49.386;8.370;2023-07-29T08:58:43;4.05;;;2.10;;
31990;SDS011;18508;49.386;8.370;2023-07-29T09:01:14;4.27;;;1.63;;
31990;SDS011;18508;49.386;8.370;2023-07-29T09:03:45;3.13;;;1.75;;
31990;SDS011;18508;49.386;8.370;2023-07-29T09:06:13;3.17;;;1.92;;
31990;SDS011;18508;49.386;8.370;2023-07-29T09:08:43;3.08;;;2.00;;
31990;SDS011;18508;49.386;8.370;2023-07-29T09:11:13;3.03;;;1.70;;
31990;SDS011;18508;49.386;8.370;2023-07-29T09:13:44;3.65;;;1.83;;
31990;SDS011;18508;49.386;8.370;2023-07-29T09:16:12;2.88;;;1.60;;
31990;SDS011;18508;49.386;8.370;2023-07-29T09:18:41;6.00;;;1.90;;
31990;SDS011;18508;49.386;8.370;2023-07-29T09:21:13;3.88;;;1.73;;
31990;SDS011;18508;49.386;8.370;2023-07-29T09:23:44;2.63;;;1.63;;
31990;SDS011;18508;49.386;8.370;2023-07-29T09:26:12;2.42;;;1.60;;
31990;SDS011;18508;49.386;8.370;2023-07-29T09:28:40;2.38;;;1.60;;
31990;SDS011;18508;49.386;8.370;2023-07-29T09:31:15;3.38;;;1.40;;
31990;SDS011;18508;49.386;8.370;2023-07-29T09:33:47;2.13;;;1.42;;
31990;SDS011;18508;49.386;8.370;2023-07-29T09:36:20;2.92;;;1.58;;
31990;SDS011;18508;49.386;8.370;2023-07-29T09:41:21;2.10;;;1.48;;
31990;SDS011;18508;49.386;8.370;2023-07-29T09:43:55;2.97;;;1.60;;
31990;SDS011;18508;49.386;8.370;2023-07-29T09:46:32;2.72;;;1.48;;
31990;SDS011;18508;49.386;8.370;2023-07-29T09:49:03;2.30;;;1.33;;
31990;SDS011;18508;49.386;8.370;2023-07-29T09:51:38;2.03;;;1.40;;
31990;SDS011;18508;49.386;8.370;2023-07-29T09:54:07;2.28;;;1.50;;
31990;SDS011;18508;49.386;8.370;2023-07-29T09:56:39;3.40;;;1.23;;
31990;SDS011;18508;49.386;8.370;2023-07-29T09:59:08;3.80;;;1.63;;
31990;SDS011;18508;49.386;8.370;2023-07-29T10:01:37;6.28;;;1.88;;
31990;SDS011;18508;49.386;8.370;2023-07-29T10:04:07;3.25;;;1.33;;
31990;SDS011;18508;49.386;8.370;2023-07-29T10:06:40;2.33;;;1.47;;
31990;SDS011;18508;49.386;8.370;2023-07-29T10:09:10;2.00;;;1.30;;
31990;SDS011;18508;49.386;8.370;2023-07-29T10:11:39;3.30;;;1.65;;
31990;SDS011;18508;49.386;8.370;2023-07-29T10:14:09;2.95;;;1.40;;
31990;SDS011;18508;49.386;8.370;2023-07-29T10:16:39;2.92;;;1.50;;
31990;SDS011;18508;49.386;8.370;2023-07-29T10:19:08;3.05;;;1.30;;
31990;SDS011;18508;49.386;8.370;2023-07-29T10:21:41;2.10;;;1.40;;
31990;SDS011;18508;49.386;8.370;2023-07-29T10:24:17;2.10;;;1.63;;
31990;SDS011;18508;49.386;8.370;2023-07-29T10:26:56;2.38;;;1.50;;
31990;SDS011;18508;49.386;8.370;2023-07-29T10:29:28;2.83;;;1.30;;
31990;SDS011;18508;49.386;8.370;2023-07-29T10:32:00;3.80;;;1.60;;
31990;SDS011;18508;49.386;8.370;2023-07-29T10:34:30;1.52;;;1.17;;
31990;SDS011;18508;49.386;8.370;2023-07-29T10:37:06;2.95;;;1.60;;
31990;SDS011;18508;49.386;8.370;2023-07-29T10:39:39;2.03;;;1.23;;
31990;SDS011;18508;49.386;8.370;2023-07-29T10:42:10;3.33;;;1.50;;
31990;SDS011;18508;49.386;8.370;2023-07-29T10:44:45;2.47;;;1.55;;
31990;SDS011;18508;49.386;8.370;2023-07-29T10:47:16;1.98;;;1.20;;
31990;SDS011;18508;49.386;8.370;2023-07-29T10:49:46;2.28;;;1.40;;
31990;SDS011;18508;49.386;8.370;2023-07-29T10:52:29;4.22;;;1.80;;
31990;SDS011;18508;49.386;8.370;2023-07-29T10:55:00;2.05;;;1.10;;
31990;SDS011;18508;49.386;8.370;2023-07-29T10:57:32;2.20;;;1.30;;
31990;SDS011;18508;49.386;8.370;2023-07-29T11:00:01;2.72;;;1.40;;
31990;SDS011;18508;49.386;8.370;2023-07-29T11:02:31;4.22;;;1.40;;
31990;SDS011;18508;49.386;8.370;2023-07-29T11:05:04;3.40;;;1.48;;
31990;SDS011;18508;49.386;8.370;2023-07-29T11:07:44;3.08;;;1.45;;
31990;SDS011;18508;49.386;8.370;2023-07-29T11:10:13;3.92;;;1.50;;
31990;SDS011;18508;49.386;8.370;2023-07-29T11:12:43;3.35;;;1.27;;
31990;SDS011;18508;49.386;8.370;2023-07-29T11:15:15;6.32;;;1.50;;
31990;SDS011;18508;49.386;8.370;2023-07-29T11:17:49;2.35;;;1.50;;
31990;SDS011;18508;49.386;8.370;2023-07-29T11:20:19;2.65;;;1.30;;
31990;SDS011;18508;49.386;8.370;2023-07-29T11:22:50;2.45;;;1.40;;
31990;SDS011;18508;49.386;8.370;2023-07-29T11:25:20;3.63;;;1.47;;
31990;SDS011;18508;49.386;8.370;2023-07-29T11:27:51;2.40;;;1.42;;
31990;SDS011;18508;49.386;8.370;2023-07-29T11:30:20;2.55;;;1.50;;
31990;SDS011;18508;49.386;8.370;2023-07-29T11:32:49;2.38;;;1.33;;
31990;SDS011;18508;49.386;8.370;2023-07-29T11:35:18;2.70;;;1.35;;
31990;SDS011;18508;49.386;8.370;2023-07-29T11:37:47;2.47;;;1.33;;
31990;SDS011;18508;49.386;8.370;2023-07-29T11:40:18;2.10;;;1.58;;
31990;SDS011;18508;49.386;8.370;2023-07-29T11:42:48;3.22;;;1.50;;
31990;SDS011;18508;49.386;8.370;2023-07-29T11:45:18;1.67;;;1.08;;
31990;SDS011;18508;49.386;8.370;2023-07-29T11:47:51;4.65;;;1.58;;
31990;SDS011;18508;49.386;8.370;2023-07-29T11:50:20;3.83;;;1.60;;
31990;SDS011;18508;49.386;8.370;2023-07-29T11:52:49;1.83;;;1.02;;
31990;SDS011;18508;49.386;8.370;2023-07-29T11:55:21;2.15;;;1.30;;
31990;SDS011;18508;49.386;8.370;2023-07-29T11:57:50;2.88;;;1.48;;
31990;SDS011;18508;49.386;8.370;2023-07-29T12:00:19;3.72;;;1.35;;
31990;SDS011;18508;49.386;8.370;2023-07-29T12:02:49;3.63;;;1.50;;
31990;SDS011;18508;49.386;8.370;2023-07-29T12:05:18;2.45;;;1.42;;
31990;SDS011;18508;49.386;8.370;2023-07-29T12:07:48;4.65;;;1.50;;
31990;SDS011;18508;49.386;8.370;2023-07-29T12:10:17;2.67;;;1.30;;
31990;SDS011;18508;49.386;8.370;2023-07-29T12:12:50;2.58;;;1.50;;
31990;SDS011;18508;49.386;8.370;2023-07-29T12:15:31;2.22;;;1.20;;
31990;SDS011;18508;49.386;8.370;2023-07-29T12:17:59;2.35;;;1.15;;
31990;SDS011;18508;49.386;8.370;2023-07-29T12:20:29;2.88;;;1.20;;
31990;SDS011;18508;49.386;8.370;2023-07-29T12:22:57;3.50;;;1.48;;
31990;SDS011;18508;49.386;8.370;2023-07-29T12:25:28;2.42;;;1.23;;
31990;SDS011;18508;49.386;8.370;2023-07-29T12:28:03;2.25;;;1.33;;
31990;SDS011;18508;49.386;8.370;2023-07-29T12:30:34;2.83;;;1.52;;
31990;SDS011;18508;49.386;8.370;2023-07-29T12:33:09;2.70;;;1.33;;
31990;SDS011;18508;49.386;8.370;2023-07-29T12:35:37;3.30;;;1.55;;
31990;SDS011;18508;49.386;8.370;2023-07-29T12:38:06;3.22;;;1.38;;
31990;SDS011;18508;49.386;8.370;2023-07-29T12:40:37;3.40;;;1.23;;
31990;SDS011;18508;49.386;8.370;2023-07-29T12:43:08;2.13;;;1.10;;
31990;SDS011;18508;49.386;8.370;2023-07-29T12:45:36;3.17;;;1.25;;
31990;SDS011;18508;49.386;8.370;2023-07-29T12:48:08;1.73;;;1.10;;
31990;SDS011;18508;49.386;8.370;2023-07-29T12:50:36;3.17;;;1.20;;
31990;SDS011;18508;49.386;8.370;2023-07-29T12:53:07;1.83;;;1.13;;
31990;SDS011;18508;49.386;8.370;2023-07-29T12:55:37;3.92;;;1.30;;
31990;SDS011;18508;49.386;8.370;2023-07-29T12:58:05;2.58;;;1.27;;
31990;SDS011;18508;49.386;8.370;2023-07-29T13:00:35;4.85;;;1.67;;
31990;SDS011;18508;49.386;8.370;2023-07-29T13:03:03;3.90;;;1.70;;
31990;SDS011;18508;49.386;8.370;2023-07-29T13:05:33;2.03;;;1.20;;
31990;SDS011;18508;49.386;8.370;2023-07-29T13:08:01;4.13;;;1.30;;
31990;SDS011;18508;49.386;8.370;2023-07-29T13:10:29;1.95;;;1.35;;
31990;SDS011;18508;49.386;8.370;2023-07-29T13:13:01;2.10;;;1.30;;
31990;SDS011;18508;49.386;8.370;2023-07-29T13:15:32;3.50;;;1.60;;
31990;SDS011;18508;49.386;8.370;2023-07-29T13:18:03;3.10;;;1.23;;
31990;SDS011;18508;49.386;8.370;2023-07-29T13:20:32;4.05;;;1.50;;
31990;SDS011;18508;49.386;8.370;2023-07-29T13:23:01;1.92;;;1.27;;
31990;SDS011;18508;49.386;8.370;2023-07-29T13:25:30;3.25;;;1.23;;
31990;SDS011;18508;49.386;8.370;2023-07-29T13:27:59;1.67;;;1.17;;
31990;SDS011;18508;49.386;8.370;2023-07-29T13:30:29;2.28;;;1.38;;
31990;SDS011;18508;49.386;8.370;2023-07-29T13:33:00;2.25;;;1.42;;
31990;SDS011;18508;49.386;8.370;2023-07-29T13:35:30;2.03;;;1.30;;
31990;SDS011;18508;49.386;8.370;2023-07-29T13:37:58;5.07;;;1.50;;
31990;SDS011;18508;49.386;8.370;2023-07-29T13:40:27;1.90;;;1.30;;
31990;SDS011;18508;49.386;8.370;2023-07-29T13:42:58;3.63;;;1.50;;
31990;SDS011;18508;49.386;8.370;2023-07-29T13:45:27;1.95;;;1.25;;
31990;SDS011;18508;49.386;8.370;2023-07-29T13:47:56;2.22;;;1.40;;
31990;SDS011;18508;49.386;8.370;2023-07-29T13:50:29;2.03;;;1.30;;
31990;SDS011;18508;49.386;8.370;2023-07-29T13:52:58;3.28;;;1.38;;
31990;SDS011;18508;49.386;8.370;2023-07-29T13:55:27;5.55;;;1.80;;
31990;SDS011;18508;49.386;8.370;2023-07-29T13:57:55;2.53;;;1.40;;
31990;SDS011;18508;49.386;8.370;2023-07-29T14:00:24;3.10;;;1.60;;
31990;SDS011;18508;49.386;8.370;2023-07-29T14:02:52;2.58;;;1.50;;
31990;SDS011;18508;49.386;8.370;2023-07-29T14:05:46;3.08;;;1.75;;
31990;SDS011;18508;49.386;8.370;2023-07-29T14:08:17;2.45;;;1.52;;
31990;SDS011;18508;49.386;8.370;2023-07-29T14:10:59;2.05;;;1.30;;
31990;SDS011;18508;49.386;8.370;2023-07-29T14:13:28;2.50;;;1.42;;
31990;SDS011;18508;49.386;8.370;2023-07-29T14:15:59;3.97;;;1.90;;
31990;SDS011;18508;49.386;8.370;2023-07-29T14:18:28;4.00;;;1.60;;
31990;SDS011;18508;49.386;8.370;2023-07-29T14:21:00;4.25;;;1.75;;
31990;SDS011;18508;49.386;8.370;2023-07-29T14:23:29;4.50;;;2.20;;
31990;SDS011;18508;49.386;8.370;2023-07-29T14:26:06;2.63;;;1.48;;
31990;SDS011;18508;49.386;8.370;2023-07-29T14:28:36;1.85;;;1.30;;
31990;SDS011;18508;49.386;8.370;2023-07-29T14:31:05;3.70;;;1.80;;
31990;SDS011;18508;49.386;8.370;2023-07-29T14:33:36;3.17;;;1.42;;
31990;SDS011;18508;49.386;8.370;2023-07-29T14:36:14;1.83;;;1.30;;
31990;SDS011;18508;49.386;8.370;2023-07-29T14:38:43;3.13;;;1.30;;
31990;SDS011;18508;49.386;8.370;2023-07-29T14:41:15;2.50;;;1.65;;
31990;SDS011;18508;49.386;8.370;2023-07-29T14:43:45;3.40;;;1.60;;
31990;SDS011;18508;49.386;8.370;2023-07-29T14:46:18;4.35;;;1.52;;
31990;SDS011;18508;49.386;8.370;2023-07-29T14:48:47;2.10;;;1.48;;
31990;SDS011;18508;49.386;8.370;2023-07-29T14:51:18;2.38;;;1.48;;
31990;SDS011;18508;49.386;8.370;2023-07-29T14:53:49;3.55;;;1.77;;
31990;SDS011;18508;49.386;8.370;2023-07-29T14:56:18;2.42;;;1.30;;
31990;SDS011;18508;49.386;8.370;2023-07-29T14:58:49;2.55;;;1.52;;
31990;SDS011;18508;49.386;8.370;2023-07-29T15:01:21;3.88;;;1.73;;
31990;SDS011;18508;49.386;8.370;2023-07-29T15:03:52;2.75;;;1.20;;
31990;SDS011;18508;49.386;8.370;2023-07-29T15:06:24;2.65;;;1.50;;
31990;SDS011;18508;49.386;8.370;2023-07-29T15:08:53;2.00;;;1.30;;
31990;SDS011;18508;49.386;8.370;2023-07-29T15:11:21;2.90;;;1.45;;
31990;SDS011;18508;49.386;8.370;2023-07-29T15:13:49;2.90;;;1.48;;
31990;SDS011;18508;49.386;8.370;2023-07-29T15:16:22;2.97;;;1.60;;
31990;SDS011;18508;49.386;8.370;2023-07-29T15:18:51;2.70;;;1.45;;